Time;durP1;ratioP1;P1;durP2;ratioP2;P2;SDS_P1;SDS_P2;PMS_P1;PMS_P2;Temp;Humidity;BMP_temperature;BMP_pressure;BME280_temperature;BME280_humidity;BME280_pressure;Samples;Min_cycle;Max_cycle;Signal;HPM_P1;HPM_P2
2022/08/10 00:01:29;;;;;;;;;;;;;;;22.64;69.52;153347.19;1676532;85;21112;-58
2022/08/10 00:03:56;;;;;;;;;;;;;;;22.59;69.69;153335.39;1676455;85;20723;-58
2022/08/10 00:06:22;;;;;;;;;;;;;;;22.53;69.92;153318.37;1665621;85;20217;-60
2022/08/10 00:08:49;;;;;;;;;;;;;;;22.46;70.18;153302.69;1662459;86;21294;-60
2022/08/10 00:11:16;;;;;;;;;;;;;;;22.41;70.46;153288.25;1664755;85;20200;-59
2022/08/10 00:13:43;;;;;;;;;;;;;;;22.36;70.58;153276.50;1685030;84;20467;-59
2022/08/10 00:16:10;;;;;;;;;;;;;;;22.29;70.72;153259.50;1685054;85;20597;-60
2022/08/10 00:18:37;;;;;;;;;;;;;;;22.25;70.90;153249.03;1682251;85;20290;-59
2022/08/10 00:21:05;;;;;;;;;;;;;;;22.18;71.18;153230.69;1677910;85;22124;-59
2022/08/10 00:23:35;;;;;;;;;;;;;;;22.12;71.37;153215.02;1678573;84;20266;-59
2022/08/10 00:26:02;;;;;;;;;;;;;;;22.08;71.53;153204.56;1678032;85;20187;-59
2022/08/10 00:28:29;;;;;;;;;;;;;;;22.06;71.60;153199.34;1678085;84;20567;-60
2022/08/10 00:30:56;;;;;;;;;;;;;;;22.01;71.69;153188.89;1677958;85;20199;-59
2022/08/10 00:33:23;;;;;;;;;;;;;;;21.97;71.72;153178.39;1678104;85;21276;-59
2022/08/10 00:35:50;;;;;;;;;;;;;;;21.95;71.79;153171.87;1677945;85;20131;-59
2022/08/10 00:38:17;;;;;;;;;;;;;;;21.92;71.95;153165.31;1677941;85;20160;-59
2022/08/10 00:40:44;;;;;;;;;;;;;;;21.89;72.02;153157.48;1678177;84;20132;-59
2022/08/10 00:43:11;;;;;;;;;;;;;;;21.85;72.14;153148.31;1677880;85;20143;-59
2022/08/10 00:45:38;;;;;;;;;;;;;;;21.83;72.26;153141.81;1677952;85;20931;-57
2022/08/10 00:48:05;;;;;;;;;;;;;;;21.79;72.43;153132.64;1677979;85;20183;-58
2022/08/10 00:50:33;;;;;;;;;;;;;;;21.74;72.68;153119.58;1678047;85;20436;-57
2022/08/10 00:53:00;;;;;;;;;;;;;;;21.66;72.85;153099.95;1677957;85;20562;-77
2022/08/10 00:55:26;;;;;;;;;;;;;;;21.62;73.12;153089.45;1656457;85;20187;-76
2022/08/10 00:57:53;;;;;;;;;;;;;;;21.59;73.21;153081.63;1678402;85;21068;-75
2022/08/10 01:00:20;;;;;;;;;;;;;;;21.57;73.38;153076.39;1678100;85;20172;-77
2022/08/10 01:02:47;;;;;;;;;;;;;;;21.54;73.57;153069.84;1678045;85;20171;-76
2022/08/10 01:05:14;;;;;;;;;;;;;;;21.53;73.54;153065.91;1668692;85;20549;-77
2022/08/10 01:08:02;;;;;;;;;;;;;;;21.47;73.71;153052.83;1645017;87;20219;-76
2022/08/10 01:10:56;;;;;;;;;;;;;;;21.47;73.73;153051.55;1644898;85;21731;-75
2022/08/10 01:13:32;;;;;;;;;;;;;;;21.43;73.89;153042.39;1682791;83;20196;-75
2022/08/10 01:16:06;;;;;;;;;;;;;;;21.42;73.88;153039.78;1683086;85;20222;-76
2022/08/10 01:18:49;;;;;;;;;;;;;;;21.39;73.87;153030.61;1683996;85;20483;-76
2022/08/10 01:21:45;;;;;;;;;;;;;;;21.33;74.05;153016.22;1685041;85;20155;-76
2022/08/10 01:24:25;;;;;;;;;;;;;;;21.29;74.18;153005.78;1685111;85;21278;-76
2022/08/10 01:27:23;;;;;;;;;;;;;;;21.26;74.12;152997.94;1684488;85;20270;-75
2022/08/10 01:29:59;;;;;;;;;;;;;;;21.23;74.13;152990.09;1684934;84;20182;-75
2022/08/10 01:32:41;;;;;;;;;;;;;;;21.22;74.16;152987.48;1685026;85;20146;-76
2022/08/10 01:35:29;;;;;;;;;;;;;;;21.16;74.31;152974.42;1685128;84;20179;-75
2022/08/10 01:38:09;;;;;;;;;;;;;;;21.11;74.37;152961.38;1684780;85;21197;-74
2022/08/10 01:40:38;;;;;;;;;;;;;;;21.07;74.36;152950.88;1684322;84;20491;-74
2022/08/10 01:43:07;;;;;;;;;;;;;;;21.06;74.48;152946.98;1685200;84;20207;-74
2022/08/10 01:45:33;;;;;;;;;;;;;;;21.04;74.33;152943.05;1684666;85;20231;-75
2022/08/10 01:50:47;;;;;;;;;;;;;;;20.95;74.62;152919.53;1684553;85;21261;-76
2022/08/10 01:53:26;;;;;;;;;;;;;;;20.91;74.82;152909.09;1684707;85;20678;-76
2022/08/10 01:55:53;;;;;;;;;;;;;;;20.88;75.04;152903.81;1685126;85;20203;-74
2022/08/10 01:58:20;;;;;;;;;;;;;;;20.85;75.08;152895.98;1684769;85;20179;-75
2022/08/10 02:00:48;;;;;;;;;;;;;;;20.82;75.47;152888.16;1684880;85;20207;-75
2022/08/10 02:03:14;;;;;;;;;;;;;;;20.80;75.62;152882.94;1684823;85;21257;-76
2022/08/10 02:05:43;;;;;;;;;;;;;;;20.76;76.02;152872.44;1664567;85;20466;-76
2022/08/10 02:08:12;;;;;;;;;;;;;;;20.74;76.41;152868.50;1645157;86;20197;-76
2022/08/10 02:10:39;;;;;;;;;;;;;;;20.76;76.52;152873.72;1647626;85;20214;-75
2022/08/10 02:13:06;;;;;;;;;;;;;;;20.76;76.64;152872.44;1684990;84;20481;-76
2022/08/10 02:15:32;;;;;;;;;;;;;;;20.77;76.82;152875.05;1685129;84;21328;-76
2022/08/10 02:18:02;;;;;;;;;;;;;;;20.78;76.91;152877.66;1682360;85;20178;-75
2022/08/10 02:20:32;;;;;;;;;;;;;;;20.76;77.11;152873.72;1670992;86;20176;-75
2022/08/10 02:23:02;;;;;;;;;;;;;;;20.79;77.25;152879.00;1670599;85;20176;-76
2022/08/10 02:25:29;;;;;;;;;;;;;;;20.81;77.26;152884.27;1670853;85;20188;-76
2022/08/10 02:27:56;;;;;;;;;;;;;;;20.85;77.21;152894.70;1670833;86;21144;-76
2022/08/10 02:30:23;;;;;;;;;;;;;;;20.86;77.02;152897.31;1670811;86;20338;-75
2022/08/10 02:32:49;;;;;;;;;;;;;;;20.85;77.21;152894.70;1670804;85;20160;-58
2022/08/10 02:35:16;;;;;;;;;;;;;;;20.85;77.38;152895.98;1670257;86;20569;-59
2022/08/10 02:37:45;;;;;;;;;;;;;;;20.86;77.52;152898.59;1670240;84;20219;-59
2022/08/10 02:40:13;;;;;;;;;;;;;;;20.87;77.59;152899.94;1670942;86;21160;-58
2022/08/10 02:42:47;;;;;;;;;;;;;;;20.90;77.48;152907.77;1670789;84;20609;-58
2022/08/10 02:45:19;;;;;;;;;;;;;;;20.92;77.60;152911.70;1671357;85;20164;-59
2022/08/10 02:47:58;;;;;;;;;;;;;;;20.91;77.78;152909.09;1671052;86;20128;-58
2022/08/10 02:50:27;;;;;;;;;;;;;;;20.91;77.69;152909.09;1670965;84;20172;-58
2022/08/10 02:53:20;;;;;;;;;;;;;;;20.92;77.79;152911.70;1651678;86;21294;-59
2022/08/10 02:55:50;;;;;;;;;;;;;;;20.91;77.81;152909.09;1671099;86;20195;-58
2022/08/10 02:58:28;;;;;;;;;;;;;;;20.91;77.81;152909.09;1670888;84;20215;-58
2022/08/10 03:00:55;;;;;;;;;;;;;;;20.89;77.87;152906.48;1671101;85;20188;-58
2022/08/10 03:03:27;;;;;;;;;;;;;;;20.87;77.98;152899.94;1671398;85;20152;-74
2022/08/10 03:05:58;;;;;;;;;;;;;;;20.86;78.05;152897.31;1655559;86;21143;-74
2022/08/10 03:08:28;;;;;;;;;;;;;;;20.86;78.01;152898.59;1645283;86;20274;-74
2022/08/10 03:10:54;;;;;;;;;;;;;;;20.87;77.83;152901.22;1651828;85;20500;-58
2022/08/10 03:13:21;;;;;;;;;;;;;;;20.87;77.71;152901.22;1685746;85;20152;-58
2022/08/10 03:15:48;;;;;;;;;;;;;;;20.86;77.68;152898.59;1686066;85;20183;-58
2022/08/10 03:18:14;;;;;;;;;;;;;;;20.85;77.85;152894.70;1680103;84;21144;-74
2022/08/10 03:20:42;;;;;;;;;;;;;;;20.82;77.95;152888.16;1666139;85;20201;-73
2022/08/10 03:23:12;;;;;;;;;;;;;;;20.81;78.11;152885.55;1665958;86;20200;-73
2022/08/10 03:25:39;;;;;;;;;;;;;;;20.83;78.12;152889.48;1666639;86;20553;-73
2022/08/10 03:28:05;;;;;;;;;;;;;;;20.84;77.99;152892.09;1665985;85;20256;-72
2022/08/10 03:30:32;;;;;;;;;;;;;;;20.83;77.99;152890.77;1666298;85;21235;-73
2022/08/10 03:32:59;;;;;;;;;;;;;;;20.85;77.84;152895.98;1665990;85;20255;-72
2022/08/10 03:35:25;;;;;;;;;;;;;;;20.87;77.57;152901.22;1665952;85;20236;-58
2022/08/10 03:37:52;;;;;;;;;;;;;;;20.88;77.47;152903.81;1665970;85;20600;-57
2022/08/10 03:40:19;;;;;;;;;;;;;;;20.92;77.29;152911.70;1666289;85;20199;-57
2022/08/10 03:42:46;;;;;;;;;;;;;;;20.94;77.24;152916.92;1666748;85;21789;-58
2022/08/10 03:45:12;;;;;;;;;;;;;;;20.97;77.15;152924.75;1666565;86;20233;-58
2022/08/10 03:47:40;;;;;;;;;;;;;;;21.02;77.01;152937.81;1666632;85;20223;-57
2022/08/10 03:50:07;;;;;;;;;;;;;;;21.11;76.97;152961.38;1647605;86;20453;-59
2022/08/10 03:52:34;;;;;;;;;;;;;;;21.19;76.77;152980.94;1666955;85;20152;-58
2022/08/10 03:55:03;;;;;;;;;;;;;;;21.23;76.32;152990.09;1666501;86;21256;-58
2022/08/10 03:57:30;;;;;;;;;;;;;;;21.27;75.88;153000.55;1667087;85;20415;-57
2022/08/10 03:59:56;;;;;;;;;;;;;;;21.31;75.68;153012.33;1666459;86;20200;-58
2022/08/10 04:02:24;;;;;;;;;;;;;;;21.39;75.46;153031.94;1666684;85;20205;-57
2022/08/10 04:04:51;;;;;;;;;;;;;;;21.46;75.19;153050.22;1663075;85;20211;-57
2022/08/10 04:07:17;;;;;;;;;;;;;;;21.54;74.84;153068.50;1643179;86;20458;-58
2022/08/10 04:09:44;;;;;;;;;;;;;;;21.59;74.54;153081.63;1643241;86;20210;-58
2022/08/10 04:12:11;;;;;;;;;;;;;;;21.63;74.41;153092.06;1673965;83;20175;-58
2022/08/10 04:14:38;;;;;;;;;;;;;;;21.69;74.23;153107.80;1688870;85;20199;-58
2022/08/10 04:17:04;;;;;;;;;;;;;;;21.74;74.11;153120.86;1688914;85;20194;-58
2022/08/10 04:19:35;;;;;;;;;;;;;;;21.79;74.13;153131.36;1669352;84;21239;-58
2022/08/10 04:22:19;;;;;;;;;;;;;;;21.85;73.79;153148.31;1664777;86;20287;-58
2022/08/10 04:24:47;;;;;;;;;;;;;;;21.85;73.68;153148.31;1665032;84;20230;-57
2022/08/10 04:27:14;;;;;;;;;;;;;;;21.79;73.98;153132.64;1664638;86;20457;-58
2022/08/10 04:29:41;;;;;;;;;;;;;;;21.77;73.99;153127.41;1664991;85;20184;-58
2022/08/10 04:32:09;;;;;;;;;;;;;;;21.77;74.27;153126.08;1664688;84;21234;-58
2022/08/10 04:34:37;;;;;;;;;;;;;;;21.75;74.33;153123.47;1665182;84;20184;-58
2022/08/10 04:37:04;;;;;;;;;;;;;;;21.75;74.53;153123.47;1664586;86;20239;-58
2022/08/10 04:39:30;;;;;;;;;;;;;;;21.77;74.60;153126.08;1664992;86;20200;-57
2022/08/10 04:41:57;;;;;;;;;;;;;;;21.85;74.47;153147.03;1645382;86;20195;-57
2022/08/10 04:44:24;;;;;;;;;;;;;;;21.93;74.01;153167.94;1664709;85;21302;-58
2022/08/10 04:46:51;;;;;;;;;;;;;;;21.98;73.70;153181.00;1664625;86;20172;-58
2022/08/10 04:49:18;;;;;;;;;;;;;;;22.00;73.43;153184.94;1664748;85;20188;-59
2022/08/10 04:51:45;;;;;;;;;;;;;;;21.99;73.43;153182.33;1664696;85;20184;-58
2022/08/10 04:54:11;;;;;;;;;;;;;;;22.00;73.52;153184.94;1664755;85;20176;-58
2022/08/10 04:56:38;;;;;;;;;;;;;;;22.00;73.59;153186.28;1664685;86;21301;-58
2022/08/10 04:59:07;;;;;;;;;;;;;;;22.07;73.55;153201.95;1664693;85;20208;-58
2022/08/10 05:01:35;;;;;;;;;;;;;;;22.13;73.21;153218.97;1664640;84;20929;-74
2022/08/10 05:04:02;;;;;;;;;;;;;;;22.16;73.28;153225.47;1664520;85;20200;-73
2022/08/10 05:06:29;;;;;;;;;;;;;;;22.23;72.91;153243.81;1655028;85;20285;-73
2022/08/10 05:08:55;;;;;;;;;;;;;;;22.26;72.61;153250.33;1652972;85;22566;-73
2022/08/10 05:11:22;;;;;;;;;;;;;;;22.30;72.65;153262.11;1661909;85;20104;-73
2022/08/10 05:13:49;;;;;;;;;;;;;;;22.36;72.33;153275.17;1678339;85;20199;-73
2022/08/10 05:16:16;;;;;;;;;;;;;;;22.44;72.13;153296.14;1678130;84;20479;-73
2022/08/10 05:18:42;;;;;;;;;;;;;;;22.49;71.91;153309.25;1671766;84;20294;-74
2022/08/10 05:21:09;;;;;;;;;;;;;;;22.55;71.62;153324.94;1664676;86;21142;-72
2022/08/10 05:23:36;;;;;;;;;;;;;;;22.57;71.50;153330.16;1664520;85;20205;-72
2022/08/10 05:26:03;;;;;;;;;;;;;;;22.58;71.46;153332.78;1664421;85;20184;-73
2022/08/10 05:28:30;;;;;;;;;;;;;;;22.65;71.42;153348.47;1664910;85;20175;-72
2022/08/10 05:30:57;;;;;;;;;;;;;;;22.71;70.96;153364.19;1664617;86;20240;-73
2022/08/10 05:33:24;;;;;;;;;;;;;;;22.72;70.94;153366.81;1664713;85;20591;-73
2022/08/10 05:35:51;;;;;;;;;;;;;;;22.81;70.72;153390.34;1664475;86;20501;-74
2022/08/10 05:38:17;;;;;;;;;;;;;;;22.93;70.44;153419.14;1663609;85;20110;-73
2022/08/10 05:40:44;;;;;;;;;;;;;;;23.06;69.57;153453.13;1650620;85;20225;-74
2022/08/10 05:43:11;;;;;;;;;;;;;;;23.08;69.36;153457.08;1647986;85;20684;-73
2022/08/10 05:45:38;;;;;;;;;;;;;;;23.08;69.24;153457.08;1647400;86;21201;-74
2022/08/10 05:48:04;;;;;;;;;;;;;;;23.08;69.45;153458.36;1647750;86;20309;-74
2022/08/10 05:50:33;;;;;;;;;;;;;;;23.15;69.18;153475.39;1646304;86;20495;-73
2022/08/10 05:53:00;;;;;;;;;;;;;;;23.12;68.83;153467.53;1646199;85;20261;-73
2022/08/10 05:55:28;;;;;;;;;;;;;;;23.07;69.07;153455.75;1647733;86;20443;-73
2022/08/10 05:57:55;;;;;;;;;;;;;;;23.01;69.27;153440.06;1649640;85;21250;-73
2022/08/10 06:00:23;;;;;;;;;;;;;;;23.03;69.38;153445.28;1649836;85;20182;-73
2022/08/10 06:02:53;;;;;;;;;;;;;;;23.08;69.34;153457.08;1648471;85;20196;-73
2022/08/10 06:05:25;;;;;;;;;;;;;;;23.09;68.88;153460.98;1649411;86;20201;-73
2022/08/10 06:07:59;;;;;;;;;;;;;;;23.06;69.00;153451.84;1647444;86;20221;-73
2022/08/10 06:10:27;;;;;;;;;;;;;;;23.12;68.97;153467.53;1650171;85;21157;-58
2022/08/10 06:15:39;;;;;;;;;;;;;;;23.23;68.53;153496.34;1648242;85;20451;-58
2022/08/10 06:18:06;;;;;;;;;;;;;;;23.28;68.26;153508.14;1656857;85;20436;-58
2022/08/10 06:20:33;;;;;;;;;;;;;;;23.30;68.15;153513.38;1648589;85;20344;-74
2022/08/10 06:23:01;;;;;;;;;;;;;;;23.30;68.13;153513.38;1652658;86;21245;-74
2022/08/10 06:25:31;;;;;;;;;;;;;;;23.28;68.28;153508.14;1654842;85;20241;-74
2022/08/10 06:27:59;;;;;;;;;;;;;;;23.32;68.33;153518.61;1652906;85;20326;-73
2022/08/10 06:30:26;;;;;;;;;;;;;;;23.43;68.36;153546.09;1653964;85;20157;-57
2022/08/10 06:32:54;;;;;;;;;;;;;;;23.59;67.97;153586.70;1649720;85;20198;-57
2022/08/10 06:35:27;;;;;;;;;;;;;;;23.74;67.56;153625.94;1652363;85;20184;-57
2022/08/10 06:37:56;;;;;;;;;;;;;;;23.88;67.03;153659.98;1652918;85;20487;-58
2022/08/10 06:40:25;;;;;;;;;;;;;;;23.97;66.54;153683.53;1649372;86;20229;-58
2022/08/10 06:42:52;;;;;;;;;;;;;;;24.00;66.18;153691.44;1654473;84;20242;-62
2022/08/10 06:45:25;;;;;;;;;;;;;;;24.08;65.76;153711.08;1659279;84;20454;-59
2022/08/10 06:48:01;;;;;;;;;;;;;;;24.08;66.19;153711.08;1657314;84;21245;-58
2022/08/10 06:50:37;;;;;;;;;;;;;;;24.11;66.07;153717.64;1657025;84;20599;-73
2022/08/10 06:53:07;;;;;;;;;;;;;;;24.14;65.86;153725.50;1656167;84;20516;-72
2022/08/10 06:55:34;;;;;;;;;;;;;;;24.16;65.68;153730.72;1657731;84;20179;-73
2022/08/10 06:58:01;;;;;;;;;;;;;;;24.25;65.32;153752.98;1654609;84;20277;-74
2022/08/10 07:00:28;;;;;;;;;;;;;;;24.41;64.79;153793.56;1624890;85;21255;-72
2022/08/10 07:02:56;;;;;;;;;;;;;;;24.58;63.66;153836.83;1656486;84;20522;-73
2022/08/10 07:05:25;;;;;;;;;;;;;;;24.69;63.54;153864.33;1657328;85;20152;-73
2022/08/10 07:07:55;;;;;;;;;;;;;;;24.79;63.20;153890.56;1656378;84;20666;-73
2022/08/10 07:10:22;;;;;;;;;;;;;;;24.85;63.11;153906.25;1652683;84;20209;-72
2022/08/10 07:12:50;;;;;;;;;;;;;;;24.94;62.70;153928.53;1647272;84;21263;-73
2022/08/10 07:15:17;;;;;;;;;;;;;;;25.01;62.41;153945.56;1613140;87;20196;-73
2022/08/10 07:17:44;;;;;;;;;;;;;;;25.10;62.08;153969.17;1615001;86;20302;-58
2022/08/10 07:20:17;;;;;;;;;;;;;;;25.13;61.85;153977.03;1611793;87;20186;-59
2022/08/10 07:22:46;;;;;;;;;;;;;;;25.16;62.08;153984.88;1613027;87;20571;-73
2022/08/10 07:25:15;;;;;;;;;;;;;;;25.34;62.38;154029.44;1614697;87;21047;-74
2022/08/10 07:27:41;;;;;;;;;;;;;;;25.54;61.79;154079.28;1609447;87;20263;-73
2022/08/10 07:30:09;;;;;;;;;;;;;;;25.70;60.58;154119.91;1610152;86;20172;-73
2022/08/10 07:32:36;;;;;;;;;;;;;;;25.77;59.89;154136.95;1605619;88;20525;-73
2022/08/10 07:35:03;;;;;;;;;;;;;;;25.81;59.81;154147.42;1611120;87;20168;-73
2022/08/10 07:37:32;;;;;;;;;;;;;;;25.88;59.84;154165.75;1609279;88;21853;-73
2022/08/10 07:39:58;;;;;;;;;;;;;;;26.03;59.86;154205.09;1610738;87;20297;-74
2022/08/10 07:42:26;;;;;;;;;;;;;;;26.17;60.05;154240.53;1609726;87;20537;-59
2022/08/10 07:44:53;;;;;;;;;;;;;;;26.25;59.60;154260.20;1629525;86;20475;-58
2022/08/10 07:47:25;;;;;;;;;;;;;;;26.28;59.71;154268.06;1611166;86;20232;-59
2022/08/10 07:49:52;;;;;;;;;;;;;;;26.38;58.91;154291.63;1609800;87;21245;-59
2022/08/10 07:52:19;;;;;;;;;;;;;;;26.46;59.43;154312.64;1612459;86;20247;-59
2022/08/10 07:54:47;;;;;;;;;;;;;;;26.53;58.21;154330.98;1609413;87;20199;-59
2022/08/10 07:57:20;;;;;;;;;;;;;;;26.59;58.50;154346.70;1607057;87;20192;-59
2022/08/10 07:59:50;;;;;;;;;;;;;;;26.69;58.20;154370.33;1609752;88;20209;-74
2022/08/10 08:02:29;;;;;;;;;;;;;;;26.73;57.69;154380.81;1612399;87;21107;-74
2022/08/10 08:04:58;;;;;;;;;;;;;;;26.72;57.29;154379.47;1603742;88;20188;-74
2022/08/10 08:07:25;;;;;;;;;;;;;;;26.71;57.61;154376.86;1609554;87;20191;-74
2022/08/10 08:09:52;;;;;;;;;;;;;;;26.73;57.51;154380.81;1607478;87;20183;-75
2022/08/10 08:12:19;;;;;;;;;;;;;;;26.76;58.18;154388.67;1611382;87;20200;-75
2022/08/10 08:14:46;;;;;;;;;;;;;;;26.88;57.84;154418.88;1680432;82;21133;-75
2022/08/10 08:17:13;;;;;;;;;;;;;;;27.02;56.82;154454.28;1651215;85;20225;-73
2022/08/10 08:19:43;;;;;;;;;;;;;;;27.03;56.69;154456.91;1632772;86;32403;-75
2022/08/10 08:22:09;;;;;;;;;;;;;;;27.00;57.04;154449.03;1648872;85;20183;-59
2022/08/10 08:24:36;;;;;;;;;;;;;;;27.07;56.54;154467.39;1650061;85;20186;-60
2022/08/10 08:27:03;;;;;;;;;;;;;;;27.13;56.69;154483.16;1649537;85;21119;-59
2022/08/10 08:29:33;;;;;;;;;;;;;;;27.24;56.04;154509.38;1653910;85;20129;-59
2022/08/10 08:32:00;;;;;;;;;;;;;;;27.26;55.38;154514.61;1647760;85;20213;-58
2022/08/10 08:34:27;;;;;;;;;;;;;;;27.20;56.04;154498.88;1647723;85;20502;-74
2022/08/10 08:36:53;;;;;;;;;;;;;;;27.25;55.83;154513.31;1653148;85;20386;-59
2022/08/10 08:39:20;;;;;;;;;;;;;;;27.31;56.09;154529.05;1656359;85;21271;-60
2022/08/10 08:41:56;;;;;;;;;;;;;;;27.45;55.55;154564.47;1653031;85;21138;-59
2022/08/10 08:44:36;;;;;;;;;;;;;;;27.55;54.96;154589.44;1652971;85;20353;-59
2022/08/10 08:47:18;;;;;;;;;;;;;;;27.63;55.13;154607.78;1650430;85;20246;-58
2022/08/10 08:50:09;;;;;;;;;;;;;;;27.72;54.52;154632.72;1654526;85;20208;-58
2022/08/10 08:52:56;;;;;;;;;;;;;;;27.79;54.68;154648.50;1647881;85;21248;-59
2022/08/10 08:55:35;;;;;;;;;;;;;;;27.90;54.52;154676.05;1651322;86;20211;-74
2022/08/10 08:58:21;;;;;;;;;;;;;;;27.97;53.33;154695.75;1649504;86;20151;-74
2022/08/10 09:00:57;;;;;;;;;;;;;;;27.98;53.84;154698.36;1650704;85;20172;-75
2022/08/10 09:03:41;;;;;;;;;;;;;;;28.05;53.67;154714.09;1649893;85;20157;-74
2022/08/10 09:06:20;;;;;;;;;;;;;;;28.14;52.98;154737.69;1645436;86;21254;-74
2022/08/10 09:09:14;;;;;;;;;;;;;;;28.22;52.61;154757.44;1651801;86;20165;-73
2022/08/10 09:12:07;;;;;;;;;;;;;;;28.23;52.92;154761.39;1638614;85;20186;-59
2022/08/10 09:14:54;;;;;;;;;;;;;;;28.31;52.75;154781.09;1605413;88;20205;-58
2022/08/10 09:17:33;;;;;;;;;;;;;;;28.41;52.56;154806.03;1554558;88;20249;-59
2022/08/10 09:20:34;;;;;;;;;;;;;;;28.50;52.28;154828.30;1626630;85;21309;-59
2022/08/10 09:23:04;;;;;;;;;;;;;;;28.62;52.24;154859.81;1617274;87;20641;-59
2022/08/10 09:25:35;;;;;;;;;;;;;;;28.78;52.10;154900.50;1618929;88;20189;-59
2022/08/10 09:28:17;;;;;;;;;;;;;;;28.89;51.51;154928.13;1618234;88;20223;-59
2022/08/10 09:30:47;;;;;;;;;;;;;;;28.94;51.06;154939.95;1599692;88;20240;-58
2022/08/10 09:33:17;;;;;;;;;;;;;;;28.96;50.49;154946.53;1618204;88;21263;-58
2022/08/10 09:36:04;;;;;;;;;;;;;;;28.98;49.97;154950.44;1617894;88;20265;-58
2022/08/10 09:38:55;;;;;;;;;;;;;;;28.90;50.24;154929.45;1617458;88;20525;-59
2022/08/10 09:41:37;;;;;;;;;;;;;;;28.85;50.78;154918.97;1616099;87;20192;-73
2022/08/10 09:44:24;;;;;;;;;;;;;;;28.86;50.76;154921.58;1617068;87;20245;-75
2022/08/10 09:47:12;;;;;;;;;;;;;;;28.95;50.43;154942.58;1614585;88;21270;-74
2022/08/10 09:50:16;;;;;;;;;;;;;;;29.08;50.05;154976.72;1617084;88;20972;-76
2022/08/10 09:52:50;;;;;;;;;;;;;;;29.25;49.94;155020.05;1621128;87;20272;-76
2022/08/10 09:55:38;;;;;;;;;;;;;;;29.40;49.48;155056.78;1618550;87;21929;-73
2022/08/10 09:58:34;;;;;;;;;;;;;;;29.51;48.40;155084.41;1572412;87;20229;-72
2022/08/10 10:01:21;;;;;;;;;;;;;;;29.56;48.91;155097.58;1617363;88;20994;-74
2022/08/10 10:04:15;;;;;;;;;;;;;;;29.57;48.24;155100.20;1616553;87;20272;-74
2022/08/10 10:06:51;;;;;;;;;;;;;;;29.57;48.19;155100.20;1622449;86;20183;-74
2022/08/10 10:09:37;;;;;;;;;;;;;;;29.64;48.25;155117.28;1616643;87;20467;-75
2022/08/10 10:12:24;;;;;;;;;;;;;;;29.62;48.27;155113.31;1618320;87;20263;-75
2022/08/10 10:15:19;;;;;;;;;;;;;;;29.57;48.37;155101.48;1642242;86;21104;-75
2022/08/10 10:18:04;;;;;;;;;;;;;;;29.55;48.20;155094.95;1660689;86;20147;-76
2022/08/10 10:21:06;;;;;;;;;;;;;;;29.62;48.38;155113.31;1652388;85;20186;-76
2022/08/10 10:23:55;;;;;;;;;;;;;;;29.72;48.39;155139.56;1651658;86;20511;-76
2022/08/10 10:26:42;;;;;;;;;;;;;;;29.84;48.63;155168.48;1658519;85;20235;-77
2022/08/10 10:29:29;;;;;;;;;;;;;;;29.96;47.83;155200.03;1656000;86;22001;-76
2022/08/10 10:31:57;;;;;;;;;;;;;;;30.00;46.76;155210.53;1655338;86;20219;-77
2022/08/10 10:34:36;;;;;;;;;;;;;;;30.07;47.05;155226.33;1654642;85;20230;-77
2022/08/10 10:37:05;;;;;;;;;;;;;;;30.10;46.74;155234.20;1653926;85;20203;-75
2022/08/10 10:39:33;;;;;;;;;;;;;;;30.00;46.58;155210.53;1653967;85;20212;-76
2022/08/10 10:42:09;;;;;;;;;;;;;;;29.96;47.12;155198.70;1653616;85;21247;-76
2022/08/10 10:45:07;;;;;;;;;;;;;;;29.99;46.84;155207.91;1652336;86;20175;-75
2022/08/10 10:47:50;;;;;;;;;;;;;;;29.97;46.65;155202.66;1653037;85;20544;-77
2022/08/10 10:50:29;;;;;;;;;;;;;;;29.95;46.64;155197.36;1649359;85;20234;-76
2022/08/10 10:53:17;;;;;;;;;;;;;;;29.96;46.81;155198.70;1615638;86;20503;-77
2022/08/10 10:55:56;;;;;;;;;;;;;;;29.99;46.72;155207.91;1621266;86;22096;-75
2022/08/10 10:58:26;;;;;;;;;;;;;;;30.08;46.37;155228.95;1624030;86;20458;-76
2022/08/10 11:01:05;;;;;;;;;;;;;;;30.11;46.18;155236.83;1635509;85;20195;-59
2022/08/10 11:03:48;;;;;;;;;;;;;;;30.21;45.82;155261.78;1617799;87;20573;-58
2022/08/10 11:06:21;;;;;;;;;;;;;;;30.26;45.89;155274.92;1636483;86;20211;-58
2022/08/10 11:08:51;;;;;;;;;;;;;;;30.28;45.24;155281.50;1634773;85;21144;-59
2022/08/10 11:11:35;;;;;;;;;;;;;;;30.28;45.34;155281.50;1637386;86;20457;-59
2022/08/10 11:14:12;;;;;;;;;;;;;;;30.23;45.18;155267.05;1631839;85;20238;-59
2022/08/10 11:16:50;;;;;;;;;;;;;;;30.17;45.57;155252.58;1615045;86;20748;-59
2022/08/10 11:19:36;;;;;;;;;;;;;;;30.20;45.72;155259.17;1618168;86;20188;-59
2022/08/10 11:22:06;;;;;;;;;;;;;;;30.29;45.38;155284.13;1622397;87;21282;-59
2022/08/10 11:24:44;;;;;;;;;;;;;;;30.36;45.28;155299.89;1611672;87;20135;-59
2022/08/10 11:27:15;;;;;;;;;;;;;;;30.39;44.81;155307.75;1617119;87;20438;-59
2022/08/10 11:30:03;;;;;;;;;;;;;;;30.39;45.09;155309.09;1612920;87;20222;-58
2022/08/10 11:32:34;;;;;;;;;;;;;;;30.43;44.10;155318.31;1620151;87;20234;-59
2022/08/10 11:35:13;;;;;;;;;;;;;;;30.45;44.11;155324.84;1615553;87;21330;-58
2022/08/10 11:37:59;;;;;;;;;;;;;;;30.48;44.05;155331.44;1614684;87;20180;-58
2022/08/10 11:40:28;;;;;;;;;;;;;;;30.52;44.14;155341.94;1608783;87;20231;-58
2022/08/10 11:43:20;;;;;;;;;;;;;;;30.64;43.84;155370.92;1617266;86;20796;-59
2022/08/10 11:45:50;;;;;;;;;;;;;;;30.72;43.73;155391.94;1630900;85;20551;-59
2022/08/10 11:48:33;;;;;;;;;;;;;;;30.78;43.72;155407.69;1646344;85;21275;-59
2022/08/10 11:51:06;;;;;;;;;;;;;;;30.77;43.22;155405.06;1623888;85;20493;-58
2022/08/10 11:53:39;;;;;;;;;;;;;;;30.78;42.83;155406.39;1615675;87;20430;-59
2022/08/10 11:56:06;;;;;;;;;;;;;;;30.72;43.04;155391.94;1611650;87;20204;-58
2022/08/10 12:01:25;;;;;;;;;;;;;;;30.67;42.98;155378.80;1609779;87;21149;-59
2022/08/10 12:03:52;;;;;;;;;;;;;;;30.73;43.04;155394.56;1617793;86;20303;-59
2022/08/10 12:06:19;;;;;;;;;;;;;;;30.72;43.67;155391.94;1610302;86;20226;-57
2022/08/10 12:08:46;;;;;;;;;;;;;;;30.75;42.74;155399.81;1611985;86;20261;-58
2022/08/10 12:11:16;;;;;;;;;;;;;;;30.82;42.55;155418.19;1609603;87;20233;-59
2022/08/10 12:13:56;;;;;;;;;;;;;;;30.84;42.74;155423.48;1619490;86;21277;-58
2022/08/10 12:16:23;;;;;;;;;;;;;;;30.86;42.66;155427.41;1616966;87;20258;-59
2022/08/10 12:18:56;;;;;;;;;;;;;;;30.83;42.39;155420.81;1615859;87;20318;-59
2022/08/10 12:21:37;;;;;;;;;;;;;;;30.75;42.68;155399.81;1606153;87;20615;-58
2022/08/10 12:24:20;;;;;;;;;;;;;;;30.73;42.34;155394.56;1581890;87;20461;-74
2022/08/10 12:27:02;;;;;;;;;;;;;;;30.74;42.66;155397.19;1600415;87;21928;-74
2022/08/10 12:29:44;;;;;;;;;;;;;;;30.81;43.13;155414.28;1612126;87;20232;-75
2022/08/10 12:32:33;;;;;;;;;;;;;;;30.85;41.94;155426.13;1615606;86;20216;-73
2022/08/10 12:35:21;;;;;;;;;;;;;;;30.76;42.38;155401.14;1608696;87;20567;-74
2022/08/10 12:38:22;;;;;;;;;;;;;;;30.67;42.37;155380.09;1612829;87;20237;-74
2022/08/10 12:40:57;;;;;;;;;;;;;;;30.66;42.70;155376.17;1606115;87;21165;-74
2022/08/10 12:43:31;;;;;;;;;;;;;;;30.71;42.76;155389.30;1599735;87;20330;-59
2022/08/10 12:46:02;;;;;;;;;;;;;;;30.68;42.28;155381.42;1610338;86;20212;-58
2022/08/10 12:48:44;;;;;;;;;;;;;;;30.67;42.14;155378.80;1619281;87;20188;-73
2022/08/10 12:51:18;;;;;;;;;;;;;;;30.64;42.08;155370.92;1611997;87;20501;-59
2022/08/10 12:53:54;;;;;;;;;;;;;;;30.65;42.05;155373.55;1619743;85;21357;-58
2022/08/10 12:56:25;;;;;;;;;;;;;;;30.67;41.78;155378.80;1615672;86;20184;-73
2022/08/10 12:58:52;;;;;;;;;;;;;;;30.75;41.69;155399.81;1619201;87;20420;-72
2022/08/10 13:01:18;;;;;;;;;;;;;;;30.72;41.75;155393.22;1622540;87;20760;-72
2022/08/10 13:03:46;;;;;;;;;;;;;;;30.64;41.54;155370.92;1617362;86;20267;-72
2022/08/10 13:06:13;;;;;;;;;;;;;;;30.49;41.95;155334.06;1621695;86;21269;-73
2022/08/10 13:11:27;;;;;;;;;;;;;;;30.43;42.19;155319.59;1616442;86;20212;-72
2022/08/10 13:13:55;;;;;;;;;;;;;;;30.53;42.34;155344.56;1613794;86;20272;-73